createdAt,value
2019-05-16T00:01:38.158Z,52.27
2019-05-16T00:04:05.368Z,54.46
2019-05-16T00:06:32.897Z,51.02
2019-05-16T00:09:00.636Z,51.75
2019-05-16T00:11:28.811Z,53.57
2019-05-16T00:13:57.856Z,53.36
2019-05-16T00:16:25.472Z,51.60
2019-05-16T00:18:52.965Z,53.52
2019-05-16T00:21:20.796Z,53.49
2019-05-16T00:23:48.708Z,52.73
2019-05-16T00:26:16.378Z,51.87
2019-05-16T00:28:44.148Z,52.55
2019-05-16T00:31:11.636Z,52.23
2019-05-16T00:33:39.134Z,51.22
2019-05-16T00:36:09.256Z,51.81
2019-05-16T00:38:37.974Z,50.74
2019-05-16T00:41:05.589Z,51.09
2019-05-16T00:43:33.093Z,51.93
2019-05-16T00:46:01.347Z,50.04
2019-05-16T00:48:29.031Z,50.30
2019-05-16T00:50:58.457Z,50.34
2019-05-16T00:53:25.856Z,50.38
2019-05-16T00:55:53.623Z,50.79
2019-05-16T00:58:21.124Z,51.31
2019-05-16T01:00:49.764Z,50.66
2019-05-16T01:03:20.273Z,51.91
2019-05-16T01:05:48.181Z,51.54
2019-05-16T01:08:15.874Z,50.65
2019-05-16T01:10:43.364Z,50.94
2019-05-16T01:13:10.872Z,51.02
2019-05-16T01:15:38.367Z,51.69
2019-05-16T01:18:07.855Z,52.16
2019-05-16T01:20:35.074Z,51.39
2019-05-16T01:23:02.591Z,51.63
2019-05-16T01:25:30.913Z,53.34
2019-05-16T01:27:58.426Z,53.15
2019-05-16T01:30:28.542Z,52.50
2019-05-16T01:32:58.123Z,52.58
2019-05-16T01:35:27.758Z,53.19
2019-05-16T01:37:54.732Z,52.54
2019-05-16T01:40:22.230Z,52.29
2019-05-16T01:42:49.736Z,52.74
2019-05-16T01:45:18.788Z,53.27
2019-05-16T01:47:48.231Z,53.44
2019-05-16T01:50:17.865Z,52.79
2019-05-16T01:52:45.220Z,52.70
2019-05-16T01:55:12.993Z,53.04
2019-05-16T01:57:40.494Z,53.32
2019-05-16T02:00:08.529Z,53.08
2019-05-16T02:02:38.294Z,53.73
2019-05-16T02:05:05.485Z,53.49
2019-05-16T02:07:32.987Z,54.01
2019-05-16T02:10:00.472Z,53.86
2019-05-16T02:12:27.977Z,53.95
2019-05-16T02:14:55.496Z,55.22
2019-05-16T02:17:23.769Z,53.95
2019-05-16T02:19:51.269Z,54.06
2019-05-16T02:22:18.756Z,54.79
2019-05-16T02:24:47.991Z,54.90
2019-05-16T02:27:18.277Z,54.61
2019-05-16T02:29:45.704Z,55.11
2019-05-16T02:32:13.198Z,54.67
2019-05-16T02:34:41.630Z,54.79
2019-05-16T02:37:20.210Z,55.87
2019-05-16T02:39:40.917Z,55.73
2019-05-16T02:42:11.507Z,56.23
2019-05-16T02:44:40.907Z,56.93
2019-05-16T02:47:06.729Z,56.52
2019-05-16T02:49:34.443Z,57.75
2019-05-16T02:52:02.116Z,57.52
2019-05-16T02:54:31.659Z,57.74
2019-05-16T02:57:01.483Z,57.57
2019-05-16T02:59:30.708Z,58.55
2019-05-16T03:02:00.598Z,59.02
2019-05-16T03:04:26.995Z,60.29
2019-05-16T03:06:54.849Z,59.75
2019-05-16T03:09:22.363Z,60.01
2019-05-16T03:11:50.999Z,60.07
2019-05-16T03:14:21.221Z,61.53
2019-05-16T03:16:50.632Z,61.72
2019-05-16T03:19:21.404Z,61.99
2019-05-16T03:21:50.670Z,60.30
2019-05-16T03:24:16.680Z,61.37
2019-05-16T03:26:44.164Z,62.47
2019-05-16T03:29:11.782Z,61.70
2019-05-16T03:31:44.337Z,62.33
2019-05-16T03:34:14.939Z,61.87
2019-05-16T03:36:43.381Z,62.77
2019-05-16T03:39:07.004Z,62.44
2019-05-16T03:41:34.761Z,62.39
2019-05-16T03:44:02.264Z,61.71
2019-05-16T03:46:30.924Z,61.74
2019-05-16T03:49:02.069Z,61.26
2019-05-16T03:51:30.699Z,61.54
2019-05-16T03:53:57.213Z,61.70
2019-05-16T03:56:24.705Z,61.15
2019-05-16T03:58:52.976Z,61.53
2019-05-16T04:01:21.031Z,61.28
2019-05-16T04:03:51.142Z,61.73
2019-05-16T04:06:18.193Z,62.05
2019-05-16T04:08:46.459Z,61.35
2019-05-16T04:11:14.002Z,62.38
2019-05-16T04:13:41.704Z,61.12
2019-05-16T04:16:11.824Z,61.38
2019-05-16T04:18:41.668Z,62.19
2019-05-16T04:21:11.630Z,61.22
2019-05-16T04:23:37.256Z,62.68
2019-05-16T04:26:04.758Z,61.39
2019-05-16T04:28:33.028Z,61.10
2019-05-16T04:31:01.871Z,61.16
2019-05-16T04:33:30.861Z,62.05
2019-05-16T04:36:01.334Z,61.20
2019-05-16T04:38:36.320Z,63.04
2019-05-16T04:41:01.198Z,63.70
2019-05-16T04:43:27.317Z,61.22
2019-05-16T04:45:54.829Z,62.28
2019-05-16T04:48:23.153Z,62.72
2019-05-16T04:50:51.834Z,61.66
2019-05-16T04:53:20.695Z,62.05
2019-05-16T04:55:51.580Z,62.40
2019-05-16T04:58:22.578Z,62.91
2019-05-16T05:00:51.250Z,62.71
2019-05-16T05:03:17.046Z,63.33
2019-05-16T05:05:44.546Z,64.11
2019-05-16T05:08:12.038Z,63.83
2019-05-16T05:10:40.659Z,63.65
2019-05-16T05:13:10.795Z,63.94
2019-05-16T05:15:39.947Z,63.66
2019-05-16T05:18:09.995Z,63.96
2019-05-16T05:20:36.336Z,64.39
2019-05-16T05:23:04.593Z,63.72
2019-05-16T05:25:32.764Z,64.04
2019-05-16T05:28:00.597Z,63.24
2019-05-16T05:30:30.274Z,64.05
2019-05-16T05:32:57.459Z,64.01
2019-05-16T05:35:24.963Z,63.85
2019-05-16T05:37:52.469Z,63.22
2019-05-16T05:40:20.185Z,63.72
2019-05-16T05:42:50.323Z,62.93
2019-05-16T05:45:16.962Z,62.82
2019-05-16T05:47:44.464Z,63.47
2019-05-16T05:50:11.956Z,64.27
2019-05-16T05:52:41.224Z,63.79
2019-05-16T05:55:10.536Z,63.66
2019-05-16T05:57:40.092Z,64.25
2019-05-16T06:00:07.133Z,63.63
2019-05-16T06:02:34.636Z,62.94
2019-05-16T06:05:02.137Z,62.99
2019-05-16T06:07:30.150Z,63.48
2019-05-16T06:10:00.203Z,63.76
2019-05-16T06:12:27.010Z,62.92
2019-05-16T06:14:54.500Z,63.34
2019-05-16T06:17:22.302Z,63.14
2019-05-16T06:19:49.929Z,63.39
2019-05-16T06:22:17.570Z,62.31
2019-05-16T06:24:45.065Z,62.39
2019-05-16T06:27:12.568Z,61.37
2019-05-16T06:29:40.323Z,62.64
2019-05-16T06:32:10.174Z,62.68
2019-05-16T06:34:37.480Z,62.33
2019-05-16T06:37:04.980Z,62.01
2019-05-16T06:39:41.987Z,62.39
2019-05-16T06:42:01.984Z,61.96
2019-05-16T06:44:30.879Z,62.61
2019-05-16T06:47:12.615Z,61.99
2019-05-16T06:49:30.255Z,63.00
2019-05-16T06:51:59.541Z,62.20
2019-05-16T06:54:26.363Z,62.45
2019-05-16T06:56:53.849Z,61.89
2019-05-16T06:59:21.669Z,63.36
2019-05-16T07:01:50.043Z,63.74
2019-05-16T07:04:19.915Z,62.96
2019-05-16T07:06:56.182Z,63.24
2019-05-16T07:09:16.447Z,63.07
2019-05-16T07:11:43.948Z,64.23
2019-05-16T07:14:11.520Z,62.83
2019-05-16T07:16:40.474Z,63.44
2019-05-16T07:19:10.347Z,63.82
2019-05-16T07:21:39.573Z,63.70
2019-05-16T07:24:07.473Z,64.82
2019-05-16T07:26:34.960Z,64.83
2019-05-16T07:29:02.924Z,64.17
2019-05-16T07:31:30.426Z,65.58
2019-05-16T07:34:00.608Z,65.12
2019-05-16T07:36:27.189Z,64.64
2019-05-16T07:38:54.689Z,64.24
2019-05-16T07:41:22.210Z,64.84
2019-05-16T07:43:50.553Z,65.05
2019-05-16T07:46:20.686Z,64.64
2019-05-16T07:48:47.604Z,64.38
2019-05-16T07:51:15.864Z,64.84
2019-05-16T07:53:43.422Z,66.96
2019-05-16T07:56:10.904Z,66.48
2019-05-16T07:58:40.791Z,65.65
2019-05-16T08:01:12.399Z,66.53
2019-05-16T08:03:37.526Z,66.88
2019-05-16T08:06:05.017Z,65.74
2019-05-16T08:08:32.525Z,65.61
2019-05-16T08:11:01.519Z,65.61
2019-05-16T08:13:30.785Z,65.99
2019-05-16T08:16:01.268Z,66.65
2019-05-16T08:18:30.078Z,66.72
2019-05-16T08:21:00.271Z,66.40
2019-05-16T08:23:26.927Z,66.59
2019-05-16T08:25:54.426Z,67.53
2019-05-16T08:28:22.116Z,66.99
2019-05-16T08:30:52.920Z,66.86
2019-05-16T08:33:21.906Z,67.23
2019-05-16T08:35:51.573Z,67.41
2019-05-16T08:38:21.501Z,67.78
2019-05-16T08:41:06.128Z,68.50
2019-05-16T08:43:21.430Z,67.53
2019-05-16T08:45:47.896Z,68.14
2019-05-16T08:48:16.061Z,68.65
2019-05-16T08:50:51.391Z,68.58
2019-05-16T08:53:14.152Z,68.72
2019-05-16T08:55:43.516Z,69.03
2019-05-16T08:58:13.472Z,69.30
2019-05-16T09:00:42.325Z,70.22
2019-05-16T09:03:12.381Z,70.67
2019-05-16T09:05:42.818Z,71.22
2019-05-16T09:08:09.589Z,70.50
2019-05-16T09:10:57.991Z,71.67
2019-05-16T09:13:07.257Z,71.79
2019-05-16T09:15:38.759Z,73.18
2019-05-16T09:18:07.313Z,72.47
2019-05-16T09:20:33.334Z,72.58
2019-05-16T09:23:00.820Z,73.43
2019-05-16T09:25:28.328Z,73.34
2019-05-16T09:27:56.921Z,73.88
2019-05-16T09:30:27.373Z,74.53
2019-05-16T09:32:53.912Z,74.63
2019-05-16T09:35:22.422Z,75.89
2019-05-16T09:37:49.912Z,76.17
2019-05-16T09:40:17.536Z,76.57
2019-05-16T09:42:47.334Z,78.26
2019-05-16T09:45:16.956Z,79.03
2019-05-16T09:47:43.664Z,79.78
2019-05-16T09:50:11.401Z,78.92
2019-05-16T09:52:38.899Z,80.02
2019-05-16T09:55:07.151Z,79.28
2019-05-16T09:57:37.321Z,79.60
2019-05-16T10:00:06.756Z,80.50
2019-05-16T10:02:36.720Z,80.54
2019-05-16T10:05:12.177Z,79.11
2019-05-16T10:07:34.314Z,80.29
2019-05-16T10:10:01.815Z,80.45
2019-05-16T10:12:29.308Z,78.42
2019-05-16T10:14:59.530Z,78.83
2019-05-16T10:17:27.285Z,79.88
2019-05-16T10:19:56.515Z,79.42
2019-05-16T10:22:27.108Z,77.70
2019-05-16T10:24:54.120Z,76.53
2019-05-16T10:27:21.634Z,77.25
2019-05-16T10:29:49.144Z,77.16
2019-05-16T10:32:16.793Z,78.15
2019-05-16T10:34:46.526Z,76.46
2019-05-16T10:37:13.640Z,77.52
2019-05-16T10:39:41.132Z,76.77
2019-05-16T10:42:23.459Z,74.94
2019-05-16T10:44:38.802Z,75.13
2019-05-16T10:47:07.573Z,74.13
2019-05-16T10:49:38.746Z,74.38
2019-05-16T10:52:07.241Z,75.07
2019-05-16T10:54:36.816Z,73.62
2019-05-16T10:57:11.351Z,73.90
2019-05-16T11:00:01.928Z,74.22
2019-05-16T11:02:09.651Z,73.50
2019-05-16T11:04:52.893Z,75.20
2019-05-16T11:07:06.550Z,74.64
2019-05-16T11:09:34.041Z,74.26
2019-05-16T11:12:01.549Z,74.01
2019-05-16T11:14:29.044Z,75.33
2019-05-16T11:16:58.067Z,73.94
2019-05-16T11:19:28.196Z,75.37
2019-05-16T11:21:57.333Z,75.93
2019-05-16T11:24:28.978Z,76.35
2019-05-16T11:26:56.660Z,75.86
2019-05-16T11:29:23.508Z,75.80
2019-05-16T11:31:51.053Z,76.55
2019-05-16T11:34:19.589Z,77.58
2019-05-16T11:36:47.993Z,78.21
2019-05-16T11:39:17.393Z,77.63
2019-05-16T11:41:47.358Z,77.91
2019-05-16T11:44:14.408Z,77.57
2019-05-16T11:46:41.895Z,78.28
2019-05-16T11:49:09.409Z,78.95
2019-05-16T11:51:38.372Z,79.24
2019-05-16T11:54:06.899Z,79.23
2019-05-16T11:56:36.896Z,79.92
2019-05-16T11:59:03.865Z,80.38
2019-05-16T12:01:31.664Z,80.77
2019-05-16T12:03:59.849Z,80.84
2019-05-16T12:06:27.332Z,80.79
2019-05-16T12:08:55.005Z,81.94
2019-05-16T12:11:22.664Z,82.43
2019-05-16T12:13:50.175Z,82.72
2019-05-16T12:16:18.853Z,82.52
2019-05-16T12:18:46.955Z,84.05
2019-05-16T12:21:17.095Z,82.86
2019-05-16T12:23:43.664Z,83.14
2019-05-16T12:26:11.153Z,83.46
2019-05-16T12:28:38.653Z,83.66
2019-05-16T12:31:07.191Z,83.45
2019-05-16T12:33:37.483Z,83.44
2019-05-16T12:36:07.278Z,83.92
2019-05-16T12:38:34.066Z,82.95
2019-05-16T12:41:01.601Z,82.79
2019-05-16T12:43:44.799Z,82.75
2019-05-16T12:45:58.342Z,82.29
2019-05-16T12:48:25.913Z,81.82
2019-05-16T12:50:53.416Z,82.33
2019-05-16T12:53:23.621Z,83.16
2019-05-16T12:55:50.244Z,83.27
2019-05-16T12:58:24.973Z,83.46
2019-05-16T13:00:54.020Z,83.13
2019-05-16T13:03:16.459Z,83.22
2019-05-16T13:05:43.941Z,84.28
2019-05-16T13:08:11.720Z,83.71
2019-05-16T13:10:39.283Z,84.71
2019-05-16T13:13:07.738Z,85.20
2019-05-16T13:15:38.222Z,84.84
2019-05-16T13:18:08.031Z,84.10
2019-05-16T13:20:37.592Z,84.63
2019-05-16T13:23:13.831Z,83.57
2019-05-16T13:25:33.725Z,84.59
2019-05-16T13:28:01.220Z,84.60
2019-05-16T13:30:28.720Z,84.68
2019-05-16T13:32:56.642Z,84.54
2019-05-16T13:35:26.906Z,84.67
2019-05-16T13:37:53.774Z,83.85
2019-05-16T13:40:21.278Z,84.33
2019-05-16T13:42:48.780Z,84.72
2019-05-16T13:45:17.883Z,84.51
2019-05-16T13:47:48.103Z,83.34
2019-05-16T13:50:16.818Z,83.77
2019-05-16T13:52:44.103Z,84.08
2019-05-16T13:55:11.621Z,83.37
2019-05-16T13:57:39.113Z,83.26
2019-05-16T14:00:07.517Z,83.12
2019-05-16T14:02:37.572Z,84.06
2019-05-16T14:05:07.514Z,83.66
2019-05-16T14:07:37.085Z,83.41
2019-05-16T14:10:05.632Z,82.42
2019-05-16T14:12:33.164Z,82.80
2019-05-16T14:15:00.678Z,83.05
2019-05-16T14:17:28.161Z,82.84
2019-05-16T14:19:57.334Z,83.67
2019-05-16T14:22:27.602Z,82.96
2019-05-16T14:24:54.305Z,83.14
2019-05-16T14:27:21.796Z,83.18
2019-05-16T14:29:49.305Z,82.93
2019-05-16T14:32:19.577Z,83.11
2019-05-16T14:34:50.986Z,83.65
2019-05-16T14:37:17.529Z,83.51
2019-05-16T14:39:44.490Z,83.65
2019-05-16T14:42:12.011Z,84.46
2019-05-16T14:44:59.670Z,85.36
2019-05-16T14:47:09.496Z,85.39
2019-05-16T14:49:37.498Z,85.22
2019-05-16T14:52:05.076Z,85.37
2019-05-16T14:54:33.269Z,86.40
2019-05-16T14:57:02.016Z,86.17
2019-05-16T14:59:30.855Z,86.28
2019-05-16T15:01:58.551Z,86.95
2019-05-16T15:04:30.120Z,87.04
2019-05-16T15:06:57.327Z,87.29
2019-05-16T15:09:27.251Z,87.24
2019-05-16T15:11:57.899Z,86.99
2019-05-16T15:14:24.849Z,87.23
2019-05-16T15:16:52.375Z,87.34
2019-05-16T15:19:19.875Z,87.89
2019-05-16T15:21:47.762Z,88.34
2019-05-16T15:24:17.746Z,87.62
2019-05-16T15:26:47.043Z,87.86
2019-05-16T15:29:16.370Z,88.11
2019-05-16T15:31:43.125Z,88.10
2019-05-16T15:34:10.621Z,88.08
2019-05-16T15:36:38.902Z,88.32
2019-05-16T15:39:08.002Z,88.20
2019-05-16T15:41:36.662Z,88.06
2019-05-16T15:44:04.497Z,88.11
2019-05-16T15:46:32.832Z,88.15
2019-05-16T15:49:00.617Z,88.61
2019-05-16T15:51:28.177Z,88.30
2019-05-16T15:53:57.218Z,88.46
2019-05-16T15:56:26.976Z,88.66
2019-05-16T15:58:54.121Z,89.11
2019-05-16T16:01:21.693Z,89.16
2019-05-16T16:03:49.975Z,89.07
2019-05-16T16:06:17.913Z,89.13
2019-05-16T16:08:46.923Z,88.75
2019-05-16T16:11:17.195Z,89.08
2019-05-16T16:13:45.084Z,88.97
2019-05-16T16:16:12.593Z,88.82
2019-05-16T16:18:40.154Z,88.99
2019-05-16T16:21:07.820Z,88.49
2019-05-16T16:23:37.245Z,89.02
2019-05-16T16:26:07.042Z,89.01
2019-05-16T16:28:33.885Z,89.49
2019-05-16T16:31:01.389Z,89.71
2019-05-16T16:33:30.207Z,89.29
2019-05-16T16:35:57.872Z,89.79
2019-05-16T16:38:25.376Z,89.90
2019-05-16T16:40:52.876Z,89.29
2019-05-16T16:43:23.675Z,89.24
2019-05-16T16:45:49.598Z,89.41
2019-05-16T16:48:17.359Z,88.92
2019-05-16T16:50:44.965Z,88.92
2019-05-16T16:53:12.468Z,88.92
2019-05-16T16:55:40.988Z,89.26
2019-05-16T16:58:09.535Z,88.60
2019-05-16T17:00:38.023Z,88.97
2019-05-16T17:03:09.389Z,88.89
2019-05-16T17:05:37.032Z,89.17
2019-05-16T17:08:04.434Z,88.97
2019-05-16T17:10:31.918Z,88.13
2019-05-16T17:12:59.478Z,88.52
2019-05-16T17:15:27.390Z,88.57
2019-05-16T17:17:57.216Z,88.41
2019-05-16T17:20:24.112Z,88.55
2019-05-16T17:22:52.388Z,88.31
2019-05-16T17:25:20.221Z,88.89
2019-05-16T17:27:47.728Z,89.18
2019-05-16T17:30:17.175Z,89.18
2019-05-16T17:32:44.789Z,88.90
2019-05-16T17:35:12.554Z,88.65
2019-05-16T17:37:40.057Z,89.01
2019-05-16T17:40:07.562Z,88.43
2019-05-16T17:42:37.186Z,89.47
2019-05-16T17:45:04.361Z,89.35
2019-05-16T17:47:31.856Z,88.81
2019-05-16T17:49:59.359Z,88.71
2019-05-16T17:52:27.382Z,89.07
2019-05-16T17:54:55.046Z,89.14
2019-05-16T17:57:22.537Z,89.34
2019-05-16T17:59:50.045Z,89.24
2019-05-16T18:02:17.545Z,89.63
2019-05-16T18:04:47.002Z,89.48
2019-05-16T18:07:14.257Z,89.51
2019-05-16T18:09:43.166Z,89.13
2019-05-16T18:12:10.860Z,89.11
2019-05-16T18:14:38.610Z,89.87
2019-05-16T18:17:07.643Z,89.74
2019-05-16T18:19:37.306Z,89.90
2019-05-16T18:22:06.667Z,89.75
2019-05-16T18:24:36.777Z,89.38
2019-05-16T18:27:06.493Z,89.89
2019-05-16T18:29:33.500Z,89.91
2019-05-16T18:32:00.991Z,89.72
2019-05-16T18:34:28.513Z,88.83
2019-05-16T18:36:57.199Z,88.79
2019-05-16T18:42:36.902Z,88.17
2019-05-16T18:45:07.373Z,88.80
2019-05-16T18:47:37.592Z,88.59
2019-05-16T18:50:07.000Z,88.44
2019-05-16T18:52:37.248Z,88.66
2019-05-16T18:55:04.584Z,88.80
2019-05-16T18:57:32.393Z,88.38
2019-05-16T18:59:59.996Z,88.49
2019-05-16T19:02:27.484Z,88.08
2019-05-16T19:04:57.565Z,88.16
2019-05-16T19:07:24.464Z,86.98
2019-05-16T19:09:51.978Z,86.50
2019-05-16T19:12:19.768Z,87.11
2019-05-16T19:14:47.372Z,87.26
2019-05-16T19:17:22.079Z,86.64
2019-05-16T19:19:46.373Z,87.53
2019-05-16T19:22:13.476Z,87.61
2019-05-16T19:24:42.786Z,87.67
2019-05-16T19:27:10.484Z,87.51
2019-05-16T19:29:37.988Z,87.23
2019-05-16T19:32:06.682Z,87.89
2019-05-16T19:34:34.384Z,87.86
2019-05-16T19:37:02.535Z,87.82
2019-05-16T19:39:30.023Z,88.11
2019-05-16T19:41:57.528Z,88.17
2019-05-16T19:44:27.251Z,88.18
2019-05-16T19:46:54.408Z,87.79
2019-05-16T19:49:22.745Z,87.71
2019-05-16T19:51:50.253Z,88.07
2019-05-16T19:54:17.739Z,88.03
2019-05-16T19:56:46.944Z,87.77
2019-05-16T19:59:16.718Z,87.62
2019-05-16T20:01:46.230Z,87.94
2019-05-16T20:04:15.408Z,88.04
2019-05-16T20:06:42.240Z,87.98
2019-05-16T20:09:10.047Z,87.93
2019-05-16T20:11:37.565Z,87.97
2019-05-16T20:14:07.311Z,88.02
2019-05-16T20:16:36.614Z,88.26
2019-05-16T20:19:03.484Z,88.70
2019-05-16T20:21:30.983Z,88.22
2019-05-16T20:23:58.474Z,88.19
2019-05-16T20:26:27.379Z,88.28
2019-05-16T20:28:59.209Z,88.42
2019-05-16T20:31:24.151Z,88.06
2019-05-16T20:33:51.632Z,87.80
2019-05-16T20:36:19.135Z,88.33
2019-05-16T20:38:46.921Z,88.08
2019-05-16T20:41:16.869Z,87.77
2019-05-16T20:43:43.908Z,87.71
2019-05-16T20:46:11.410Z,87.73
2019-05-16T20:48:38.945Z,88.14
2019-05-16T20:51:07.192Z,88.11
2019-05-16T20:53:37.343Z,88.26
2019-05-16T20:56:06.418Z,87.69
2019-05-16T20:58:34.236Z,87.75
2019-05-16T21:01:02.089Z,87.54
2019-05-16T21:03:29.599Z,87.58
2019-05-16T21:05:58.141Z,87.89
2019-05-16T21:08:26.658Z,87.86
2019-05-16T21:10:54.233Z,87.98
2019-05-16T21:13:21.737Z,87.57
2019-05-16T21:15:49.224Z,87.44
2019-05-16T21:18:17.501Z,87.50
2019-05-16T21:20:46.961Z,87.39
2019-05-16T21:23:16.658Z,87.10
2019-05-16T21:25:46.369Z,87.47
2019-05-16T21:28:13.421Z,87.42
2019-05-16T21:30:40.908Z,87.51
2019-05-16T21:33:08.411Z,87.18
2019-05-16T21:35:36.476Z,87.04
2019-05-16T21:38:08.423Z,86.80
2019-05-16T21:40:33.480Z,86.92
2019-05-16T21:43:01.108Z,86.71
2019-05-16T21:45:28.807Z,86.93
2019-05-16T21:47:56.954Z,87.14
2019-05-16T21:50:24.483Z,87.18
2019-05-16T21:52:51.988Z,87.50
2019-05-16T21:55:19.478Z,87.73
2019-05-16T21:57:46.980Z,87.61
2019-05-16T22:00:16.792Z,86.79
2019-05-16T22:02:46.532Z,86.93
2019-05-16T22:05:13.840Z,87.51
2019-05-16T22:07:41.412Z,86.96
2019-05-16T22:10:08.913Z,87.36
2019-05-16T22:12:38.373Z,87.41
2019-05-16T22:15:06.677Z,87.42
2019-05-16T22:17:36.478Z,87.00
2019-05-16T22:20:06.849Z,86.48
2019-05-16T22:22:33.979Z,86.26
2019-05-16T22:25:01.468Z,86.07
2019-05-16T22:27:28.959Z,86.22
2019-05-16T22:29:56.867Z,86.14
2019-05-16T22:32:24.436Z,85.92
2019-05-16T22:34:52.022Z,86.17
2019-05-16T22:37:19.512Z,86.12
2019-05-16T22:39:47.784Z,85.98
2019-05-16T22:42:17.618Z,86.00
2019-05-16T22:44:46.606Z,86.04
2019-05-16T22:47:14.293Z,86.15
2019-05-16T22:49:42.149Z,86.19
2019-05-16T22:52:09.637Z,85.83
2019-05-16T22:54:37.263Z,85.12
2019-05-16T22:57:06.709Z,85.53
2019-05-16T22:59:34.355Z,85.79
2019-05-16T23:02:01.866Z,85.48
2019-05-16T23:04:29.360Z,85.56
2019-05-16T23:06:57.533Z,85.35
2019-05-16T23:09:26.982Z,85.55
2019-05-16T23:11:56.240Z,85.82
2019-05-16T23:14:26.267Z,85.75
2019-05-16T23:16:54.120Z,85.72
2019-05-16T23:19:21.628Z,86.16
2019-05-16T23:21:49.116Z,85.97
2019-05-16T23:24:17.228Z,86.41
2019-05-16T23:26:46.853Z,87.27
2019-05-16T23:29:16.922Z,86.93
2019-05-16T23:31:44.116Z,86.57
2019-05-16T23:34:12.388Z,86.80
2019-05-16T23:36:40.135Z,86.53
2019-05-16T23:39:07.641Z,86.18
2019-05-16T23:41:36.736Z,86.84
2019-05-16T23:44:07.268Z,87.23
2019-05-16T23:46:36.319Z,87.43
2019-05-16T23:49:04.177Z,87.85
2019-05-16T23:51:31.685Z,87.92
2019-05-16T23:53:59.183Z,87.78
2019-05-16T23:56:27.246Z,87.37
2019-05-16T23:58:56.975Z,87.40
